createdAt,value
2022-10-05T00:02:36.877Z,17
2022-10-05T00:07:19.188Z,13.4
2022-10-05T00:12:01.526Z,25.3
2022-10-05T00:16:43.712Z,13
2022-10-05T00:21:26.052Z,15.2
2022-10-05T00:26:08.336Z,17.9
2022-10-05T00:30:50.564Z,15
2022-10-05T00:35:32.861Z,17.2
2022-10-05T00:40:15.168Z,15.7
2022-10-05T00:44:57.386Z,14
2022-10-05T00:49:39.728Z,15.4
2022-10-05T00:54:21.007Z,19
2022-10-05T00:59:03.336Z,13.9
2022-10-05T01:03:45.591Z,15.1
2022-10-05T01:08:27.846Z,18.7
2022-10-05T01:13:10.149Z,14.9
2022-10-05T01:17:52.379Z,15
2022-10-05T01:22:34.677Z,19.9
2022-10-05T01:27:16.983Z,12.7
2022-10-05T01:31:59.201Z,13.1
2022-10-05T01:36:41.587Z,19.79
2022-10-05T01:41:23.828Z,14.7
2022-10-05T01:46:06.130Z,14.9
2022-10-05T01:50:48.349Z,19.6
2022-10-05T01:55:29.658Z,20.4
2022-10-05T02:00:11.966Z,14
2022-10-05T02:04:54.185Z,18.29
2022-10-05T02:09:36.492Z,18.4
2022-10-05T02:14:18.806Z,22
2022-10-05T02:19:01.119Z,20.8
2022-10-05T02:23:43.334Z,22.4
2022-10-05T02:28:25.639Z,17.79
2022-10-05T02:33:07.956Z,23.7
2022-10-05T02:37:50.163Z,21.5
2022-10-05T02:42:32.475Z,20.5
2022-10-05T02:47:14.784Z,21.2
2022-10-05T02:51:57.004Z,22.6
2022-10-05T02:56:38.304Z,25.2
2022-10-05T03:01:20.619Z,23.5
2022-10-05T03:06:02.941Z,22.3
2022-10-05T03:10:45.142Z,24.3
2022-10-05T03:15:27.459Z,27
2022-10-05T03:20:08.768Z,17.6
2022-10-05T03:24:50.089Z,19.79
2022-10-05T03:29:31.382Z,20.8
2022-10-05T03:34:12.730Z,25.8
2022-10-05T03:38:54.910Z,22.3
2022-10-05T03:43:37.220Z,23.1
2022-10-05T03:48:19.536Z,23.4
2022-10-05T03:53:01.780Z,24.5
2022-10-05T03:57:44.054Z,24.6
2022-10-05T04:02:26.368Z,26.4
2022-10-05T04:07:08.683Z,28.1
2022-10-05T04:11:50.902Z,20
2022-10-05T04:16:33.215Z,25.1
2022-10-05T04:21:15.537Z,21.3
2022-10-05T04:25:57.731Z,20
2022-10-05T04:30:40.045Z,28.3
2022-10-05T04:35:21.357Z,30.5
2022-10-05T04:40:03.718Z,32.9
2022-10-05T04:44:45.899Z,26.5
2022-10-05T04:49:28.186Z,30.7
2022-10-05T04:54:10.493Z,25
2022-10-05T04:58:52.710Z,43.3
2022-10-05T05:03:35.126Z,27.1
2022-10-05T05:08:17.354Z,27
2022-10-05T05:12:59.554Z,24.3
2022-10-05T05:17:41.857Z,32.7
2022-10-05T05:22:24.170Z,26.7
2022-10-05T05:27:06.434Z,32.09
2022-10-05T05:31:48.692Z,26.5
2022-10-05T05:36:30.002Z,28.2
2022-10-05T05:41:12.329Z,29.3
2022-10-05T05:45:54.558Z,24
2022-10-05T05:50:36.883Z,26.8
2022-10-05T05:55:19.158Z,30.8
2022-10-05T06:00:01.409Z,36.8
2022-10-05T06:04:43.762Z,28.4
2022-10-05T06:09:26.010Z,26.8
2022-10-05T06:14:08.197Z,25.9
2022-10-05T06:18:50.544Z,33
2022-10-05T06:23:32.832Z,30.8
2022-10-05T06:28:15.232Z,39.8
2022-10-05T06:32:57.417Z,54.2
2022-10-05T06:37:39.771Z,62
2022-10-05T06:42:20.978Z,52.3
2022-10-05T06:47:03.205Z,59.3
2022-10-05T06:51:45.496Z,47.6
2022-10-05T06:56:27.837Z,54
2022-10-05T07:01:10.120Z,48.1
2022-10-05T07:05:52.335Z,38.8
2022-10-05T07:10:34.643Z,41.3
2022-10-05T07:15:17.001Z,39
2022-10-05T07:19:59.223Z,42.3
2022-10-05T07:24:41.479Z,29.6
2022-10-05T07:34:06.041Z,20.9
2022-10-05T07:43:30.630Z,29.1
2022-10-05T07:48:11.952Z,26.7
2022-10-05T07:52:54.177Z,21.3
2022-10-05T07:57:36.548Z,21.6
2022-10-05T08:02:18.741Z,21.1
2022-10-05T08:07:00.123Z,22.5
2022-10-05T08:11:41.297Z,26.2
2022-10-05T08:16:23.658Z,24.9
2022-10-05T08:21:04.925Z,26.2
2022-10-05T08:25:46.319Z,19.7
2022-10-05T08:30:28.541Z,11.9
2022-10-05T08:35:10.755Z,12.8
2022-10-05T08:39:53.090Z,9.89
2022-10-05T08:44:35.382Z,6.8
2022-10-05T08:49:17.617Z,8.8
2022-10-05T08:53:59.955Z,9.3
2022-10-05T08:58:42.216Z,8.39
2022-10-05T09:03:24.453Z,8.8
2022-10-05T09:08:06.771Z,12.4
2022-10-05T09:12:48.962Z,10.9
2022-10-05T09:17:31.366Z,10.2
2022-10-05T09:22:13.579Z,11.7
2022-10-05T09:26:54.948Z,11.9
2022-10-05T09:31:37.104Z,8.89
2022-10-05T09:36:19.421Z,7.9
2022-10-05T09:41:01.726Z,7.4
2022-10-05T09:45:44.067Z,6.2
2022-10-05T09:50:26.251Z,5.6
2022-10-05T09:55:08.567Z,10.9
2022-10-05T09:59:49.899Z,6.4
2022-10-05T10:04:31.087Z,6.9
2022-10-05T10:09:12.433Z,5.9
2022-10-05T10:13:54.728Z,4.8
2022-10-05T10:18:36.021Z,5.5
2022-10-05T10:23:18.423Z,7.1
2022-10-05T10:28:00.542Z,5.2
2022-10-05T10:32:42.962Z,4.5
2022-10-05T10:37:25.222Z,4.6
2022-10-05T10:42:07.500Z,3.9
2022-10-05T10:51:32.005Z,6.1
2022-10-05T10:56:14.216Z,4.3
2022-10-05T11:00:56.558Z,6.7
2022-10-05T11:05:38.880Z,4
2022-10-05T11:10:21.086Z,8.8
2022-10-05T11:15:03.316Z,6.3
2022-10-05T11:19:44.654Z,3.7
2022-10-05T11:24:26.958Z,5.2
2022-10-05T11:29:09.325Z,4.6
2022-10-05T11:33:51.476Z,4.5
2022-10-05T11:38:33.786Z,7.3
2022-10-05T11:43:16.125Z,5.8
2022-10-05T11:47:58.410Z,6.1
2022-10-05T11:52:39.688Z,6.9
2022-10-05T11:57:21.930Z,8
2022-10-05T12:02:03.270Z,3.4
2022-10-05T12:06:44.687Z,3.9
2022-10-05T12:11:25.979Z,7
2022-10-05T12:16:08.074Z,2.6
2022-10-05T12:20:50.382Z,6.5
2022-10-05T12:25:32.734Z,4.9
2022-10-05T12:30:14.911Z,3
2022-10-05T12:34:57.222Z,3.4
2022-10-05T12:39:39.571Z,5.7
2022-10-05T12:44:21.768Z,9.8
2022-10-05T12:49:04.076Z,3
2022-10-05T12:53:46.371Z,10.9
2022-10-05T12:58:28.594Z,12.4
2022-10-05T13:03:10.991Z,3.9
2022-10-05T13:07:53.211Z,7.2
2022-10-05T13:12:34.522Z,3.4
2022-10-05T13:17:16.766Z,4.19
2022-10-05T13:21:59.043Z,4.6
2022-10-05T13:26:41.358Z,4.19
2022-10-05T13:31:23.568Z,5.3
2022-10-05T13:36:04.983Z,2.6
2022-10-05T13:40:47.224Z,3.3
2022-10-05T13:45:28.503Z,2.9
2022-10-05T13:50:09.893Z,3.4
2022-10-05T13:54:52.026Z,2.7
2022-10-05T13:59:34.339Z,1.9
2022-10-05T14:04:16.649Z,2.7
2022-10-05T14:08:58.882Z,3.1
2022-10-05T14:13:41.192Z,4.4
2022-10-05T14:18:23.485Z,4.1
2022-10-05T14:23:05.703Z,2.4
2022-10-05T14:27:48.103Z,3.1
2022-10-05T14:32:30.324Z,3.2
2022-10-05T14:37:12.535Z,2.9
2022-10-05T14:41:54.849Z,1.9
2022-10-05T14:46:37.164Z,6.3
2022-10-05T14:51:18.476Z,2.2
2022-10-05T14:56:00.698Z,2.4
2022-10-05T15:00:42.994Z,3.9
2022-10-05T15:05:25.326Z,2.3
2022-10-05T15:10:07.544Z,3.2
2022-10-05T15:14:49.829Z,6.8
2022-10-05T15:19:32.155Z,3.4
2022-10-05T15:24:13.459Z,2.7
2022-10-05T15:28:54.707Z,2.8
2022-10-05T15:33:35.979Z,2.3
2022-10-05T15:38:17.316Z,2.09
2022-10-05T15:42:59.601Z,9.8
2022-10-05T15:47:41.908Z,2.2
2022-10-05T15:52:24.125Z,4.4
2022-10-05T15:57:06.437Z,3.9
2022-10-05T16:01:48.749Z,7.8
2022-10-05T16:06:30.966Z,6
2022-10-05T16:11:13.273Z,4.5
2022-10-05T16:15:55.640Z,5.1
2022-10-05T16:20:37.826Z,5
2022-10-05T16:25:20.114Z,5.3
2022-10-05T16:30:02.421Z,4.5
2022-10-05T16:34:44.642Z,9.3
2022-10-05T16:39:25.978Z,4.8
2022-10-05T16:44:08.255Z,6.1
2022-10-05T16:48:50.475Z,11.3
2022-10-05T16:53:32.791Z,11.9
2022-10-05T16:58:15.117Z,9.1
2022-10-05T17:02:57.303Z,7.5
2022-10-05T17:07:39.613Z,8.3
2022-10-05T17:12:20.933Z,7.2
2022-10-05T17:17:02.242Z,6.8
2022-10-05T17:21:44.666Z,15.6
2022-10-05T17:26:26.805Z,13.7
2022-10-05T17:31:09.075Z,13.6
2022-10-05T17:35:51.385Z,11.7
2022-10-05T17:40:33.599Z,14.7
2022-10-05T17:45:15.907Z,20.6
2022-10-05T17:49:58.227Z,21.6
2022-10-05T17:54:40.437Z,11.5
2022-10-05T17:59:22.742Z,19.6
2022-10-05T18:04:05.052Z,18.29
2022-10-05T18:08:47.268Z,17.9
2022-10-05T18:13:29.580Z,35.8
2022-10-05T18:18:10.888Z,28.7
2022-10-05T18:22:53.104Z,24.8
2022-10-05T18:27:35.592Z,28.2
2022-10-05T18:32:17.720Z,31.7
2022-10-05T18:37:00.047Z,23.3
2022-10-05T18:41:42.246Z,21
2022-10-05T18:46:24.564Z,30.7
2022-10-05T18:51:05.903Z,27.3
2022-10-05T18:55:47.177Z,22.8
2022-10-05T19:00:28.491Z,26.5
2022-10-05T19:05:09.797Z,22.6
2022-10-05T19:09:51.110Z,31.8
2022-10-05T19:14:32.317Z,27.6
2022-10-05T19:19:14.632Z,32.09
2022-10-05T19:23:56.945Z,36.2
2022-10-05T19:28:39.156Z,30.7
2022-10-05T19:33:21.463Z,38
2022-10-05T19:38:03.779Z,39.8
2022-10-05T19:42:45.989Z,29.2
2022-10-05T19:47:28.300Z,35.3
2022-10-05T19:52:10.640Z,29.3
2022-10-05T19:56:52.931Z,28.4
2022-10-05T20:01:35.171Z,28.2
2022-10-05T20:06:17.452Z,32.3
2022-10-05T20:10:59.757Z,33.3
2022-10-05T20:15:40.970Z,32.8
2022-10-05T20:20:23.277Z,29.4
2022-10-05T20:25:05.595Z,28
2022-10-05T20:29:47.817Z,27.4
2022-10-05T20:34:30.154Z,24.7
2022-10-05T20:39:12.430Z,31.9
2022-10-05T20:43:54.637Z,27.7
2022-10-05T20:48:35.946Z,17.29
2022-10-05T20:53:17.262Z,25.3
2022-10-05T20:57:58.572Z,27.5
2022-10-05T21:02:39.901Z,28.3
2022-10-05T21:07:22.278Z,39.9
2022-10-05T21:12:04.531Z,33
2022-10-05T21:16:46.719Z,29.5
2022-10-05T21:21:29.028Z,32.3
2022-10-05T21:30:53.548Z,30.6
2022-10-05T21:35:35.980Z,27.9
2022-10-05T21:40:18.171Z,38.7
2022-10-05T21:45:00.383Z,35.5
2022-10-05T21:49:42.713Z,36.7
2022-10-05T21:54:25.007Z,37.8
2022-10-05T21:59:07.269Z,32.09
2022-10-05T22:03:48.526Z,30.4
2022-10-05T22:08:30.857Z,29
2022-10-05T22:13:13.198Z,34.5
2022-10-05T22:17:55.370Z,25.3
2022-10-05T22:22:37.677Z,31.3
2022-10-05T22:27:20.029Z,34.4
2022-10-05T22:32:02.201Z,32
2022-10-05T22:36:44.512Z,42.6
2022-10-05T22:41:25.867Z,33.09
2022-10-05T22:46:07.158Z,43
2022-10-05T22:50:48.465Z,44.5
2022-10-05T22:55:29.752Z,36.7
2022-10-05T23:00:11.966Z,46.4
2022-10-05T23:04:54.277Z,43.5
2022-10-05T23:09:36.585Z,47.8
2022-10-05T23:14:18.798Z,49.7
2022-10-05T23:19:01.110Z,35
2022-10-05T23:23:43.422Z,39.59
2022-10-05T23:28:25.632Z,34.8
2022-10-05T23:33:07.944Z,37.5
2022-10-05T23:37:50.284Z,28.8
2022-10-05T23:42:32.579Z,33.59
2022-10-05T23:47:14.784Z,41.3
2022-10-05T23:51:57.102Z,42.1
2022-10-05T23:56:38.411Z,30.2
